createdAt,value
2018-09-17T00:02:03.692Z,20.17
2018-09-17T00:04:34.124Z,26.03
2018-09-17T00:07:04.620Z,23.43
2018-09-17T00:09:35.198Z,17.23
2018-09-17T00:12:06.048Z,22.40
2018-09-17T00:14:36.980Z,19.17
2018-09-17T00:17:07.569Z,19.30
2018-09-17T00:19:38.217Z,23.47
2018-09-17T00:22:08.471Z,28.87
2018-09-17T00:24:38.716Z,23.17
2018-09-17T00:27:10.132Z,24.63
2018-09-17T00:29:40.619Z,19.53
2018-09-17T00:32:10.848Z,21.07
2018-09-17T00:34:41.374Z,24.90
2018-09-17T00:37:11.999Z,20.50
2018-09-17T00:39:42.622Z,22.00
2018-09-17T00:42:13.876Z,20.37
2018-09-17T00:44:44.741Z,24.03
2018-09-17T00:47:15.917Z,21.20
2018-09-17T00:49:46.830Z,23.80
2018-09-17T00:52:17.922Z,23.43
2018-09-17T00:54:48.688Z,31.23
2018-09-17T00:57:19.832Z,28.70
2018-09-17T00:59:50.621Z,20.23
2018-09-17T01:02:20.847Z,20.27
2018-09-17T01:04:51.118Z,19.20
2018-09-17T01:07:21.677Z,17.00
2018-09-17T01:09:52.205Z,18.77
2018-09-17T01:12:23.052Z,27.13
2018-09-17T01:14:53.569Z,18.40
2018-09-17T01:17:24.128Z,20.90
2018-09-17T01:19:54.924Z,17.73
2018-09-17T01:22:25.749Z,20.17
2018-09-17T01:24:56.035Z,21.10
2018-09-17T01:27:26.828Z,21.27
2018-09-17T01:29:57.499Z,22.80
2018-09-17T01:32:28.472Z,21.27
2018-09-17T01:34:59.341Z,20.33
2018-09-17T01:37:30.116Z,19.57
2018-09-17T01:40:00.744Z,18.97
2018-09-17T01:42:32.265Z,27.33
2018-09-17T01:45:02.947Z,20.33
2018-09-17T01:47:33.529Z,28.30
2018-09-17T01:50:05.864Z,18.50
2018-09-17T01:52:36.112Z,24.33
2018-09-17T01:55:06.548Z,30.00
2018-09-17T01:57:37.074Z,27.60
2018-09-17T02:00:07.370Z,24.17
2018-09-17T02:02:37.859Z,20.80
2018-09-17T02:05:08.292Z,22.27
2018-09-17T02:07:38.796Z,30.03
2018-09-17T02:10:09.521Z,22.87
2018-09-17T02:12:40.189Z,27.40
2018-09-17T02:15:10.470Z,24.07
2018-09-17T02:17:41.104Z,23.27
2018-09-17T02:20:11.950Z,27.20
2018-09-17T02:22:42.180Z,27.80
2018-09-17T02:25:12.689Z,28.23
2018-09-17T02:27:42.964Z,33.90
2018-09-17T02:30:13.507Z,29.17
2018-09-17T02:32:44.035Z,27.37
2018-09-17T02:35:14.830Z,31.57
2018-09-17T02:37:45.399Z,30.70
2018-09-17T02:40:17.367Z,28.90
2018-09-17T02:42:49.817Z,30.53
2018-09-17T02:45:21.192Z,28.47
2018-09-17T02:47:51.783Z,28.07
2018-09-17T02:50:22.338Z,30.73
2018-09-17T02:52:52.867Z,27.33
2018-09-17T02:55:23.690Z,26.83
2018-09-17T02:57:54.314Z,36.37
2018-09-17T03:00:25.050Z,28.00
2018-09-17T03:02:55.767Z,26.73
2018-09-17T03:05:26.244Z,26.23
2018-09-17T03:07:56.508Z,32.27
2018-09-17T03:10:27.185Z,24.30
2018-09-17T03:12:58.008Z,30.03
2018-09-17T03:15:39.392Z,26.60
2018-09-17T03:18:10.098Z,32.53
2018-09-17T03:20:40.700Z,24.67
2018-09-17T03:23:11.480Z,25.80
2018-09-17T03:25:42.038Z,25.77
2018-09-17T03:28:12.835Z,23.63
2018-09-17T03:30:43.690Z,25.47
2018-09-17T03:33:14.451Z,27.17
2018-09-17T03:35:45.425Z,28.37
2018-09-17T03:38:33.962Z,25.93
2018-09-17T03:41:05.141Z,25.33
2018-09-17T03:43:36.563Z,33.07
2018-09-17T03:46:07.153Z,27.13
2018-09-17T03:48:38.707Z,26.10
2018-09-17T03:51:09.832Z,43.17
2018-09-17T03:53:40.371Z,23.87
2018-09-17T03:56:11.089Z,28.63
2018-09-17T03:58:41.610Z,22.10
2018-09-17T04:01:12.162Z,25.83
2018-09-17T04:03:44.595Z,22.43
2018-09-17T04:06:15.092Z,23.93
2018-09-17T04:08:45.588Z,24.70
2018-09-17T04:11:16.108Z,20.83
2018-09-17T04:13:46.696Z,25.93
2018-09-17T04:16:17.481Z,23.90
2018-09-17T04:18:48.012Z,22.00
2018-09-17T04:21:18.892Z,24.23
2018-09-17T04:23:49.142Z,19.07
2018-09-17T04:26:19.744Z,20.33
2018-09-17T04:28:50.284Z,23.70
2018-09-17T04:31:20.971Z,23.03
2018-09-17T04:33:51.476Z,20.50
2018-09-17T04:36:22.004Z,25.60
2018-09-17T04:38:52.580Z,27.53
2018-09-17T04:41:23.437Z,25.80
2018-09-17T04:43:53.965Z,23.50
2018-09-17T04:46:24.501Z,31.20
2018-09-17T04:48:54.722Z,29.03
2018-09-17T04:51:25.560Z,21.57
2018-09-17T04:53:55.810Z,21.30
2018-09-17T04:56:26.911Z,32.60
2018-09-17T04:58:57.139Z,25.83
2018-09-17T05:01:31.320Z,26.13
2018-09-17T05:04:01.832Z,28.20
2018-09-17T05:06:32.687Z,19.17
2018-09-17T05:09:03.131Z,23.30
2018-09-17T05:11:34.049Z,30.83
2018-09-17T05:14:05.128Z,26.93
2018-09-17T05:16:35.703Z,22.17
2018-09-17T05:19:06.120Z,22.23
2018-09-17T05:21:36.821Z,25.47
2018-09-17T05:24:07.303Z,28.60
2018-09-17T05:26:37.848Z,23.33
2018-09-17T05:29:08.408Z,21.70
2018-09-17T05:31:38.971Z,30.93
2018-09-17T05:34:09.296Z,23.40
2018-09-17T05:36:39.700Z,27.53
2018-09-17T05:39:16.878Z,23.67
2018-09-17T05:41:47.445Z,27.33
2018-09-17T05:44:18.039Z,29.60
2018-09-17T05:46:48.576Z,29.90
2018-09-17T05:49:19.372Z,24.50
2018-09-17T05:51:50.210Z,22.93
2018-09-17T05:54:20.596Z,18.47
2018-09-17T05:56:51.268Z,21.97
2018-09-17T05:59:22.041Z,19.77
2018-09-17T06:01:52.656Z,22.33
2018-09-17T06:04:23.249Z,25.57
2018-09-17T06:06:53.704Z,30.73
2018-09-17T06:09:24.427Z,33.30
2018-09-17T06:11:54.766Z,37.57
2018-09-17T06:14:25.334Z,31.97
2018-09-17T06:16:56.151Z,32.23
2018-09-17T06:19:27.219Z,29.90
2018-09-17T06:21:57.692Z,26.50
2018-09-17T06:24:28.355Z,30.10
2018-09-17T06:26:58.917Z,30.70
2018-09-17T06:29:29.689Z,24.00
2018-09-17T06:32:00.204Z,26.37
2018-09-17T06:34:30.810Z,38.30
2018-09-17T06:37:01.213Z,37.47
2018-09-17T06:39:31.447Z,32.03
2018-09-17T06:42:02.061Z,38.33
2018-09-17T06:44:32.332Z,29.50
2018-09-17T06:47:02.891Z,27.20
2018-09-17T06:49:33.532Z,26.07
2018-09-17T06:52:04.030Z,23.50
2018-09-17T06:54:34.562Z,23.37
2018-09-17T06:57:05.350Z,23.70
2018-09-17T06:59:35.897Z,27.40
2018-09-17T07:02:07.203Z,20.60
2018-09-17T07:04:39.301Z,20.77
2018-09-17T07:07:09.920Z,22.90
2018-09-17T07:09:40.648Z,24.73
2018-09-17T07:12:11.306Z,18.33
2018-09-17T07:14:41.895Z,17.30
2018-09-17T07:17:12.398Z,18.70
2018-09-17T07:19:42.741Z,19.87
2018-09-17T07:22:13.303Z,25.53
2018-09-17T07:24:43.840Z,22.43
2018-09-17T07:27:14.688Z,17.67
2018-09-17T07:29:45.442Z,16.37
2018-09-17T07:32:15.729Z,17.83
2018-09-17T07:34:46.037Z,15.80
2018-09-17T07:37:16.603Z,26.20
2018-09-17T07:39:47.481Z,13.60
2018-09-17T07:42:17.846Z,23.80
2018-09-17T07:44:48.671Z,12.60
2018-09-17T07:47:19.632Z,17.30
2018-09-17T07:49:50.148Z,14.40
2018-09-17T07:52:20.881Z,12.60
2018-09-17T07:54:51.399Z,12.87
2018-09-17T07:57:22.115Z,14.90
2018-09-17T07:59:52.640Z,13.00
2018-09-17T08:02:23.431Z,13.00
2018-09-17T08:04:53.667Z,13.20
2018-09-17T08:07:23.927Z,12.60
2018-09-17T08:09:54.547Z,13.70
2018-09-17T08:12:25.064Z,14.73
2018-09-17T08:14:55.636Z,13.33
2018-09-17T08:17:25.856Z,24.73
2018-09-17T08:19:56.388Z,13.53
2018-09-17T08:22:27.156Z,11.53
2018-09-17T08:24:57.764Z,11.20
2018-09-17T08:27:28.592Z,10.60
2018-09-17T08:29:59.740Z,13.43
2018-09-17T08:32:37.004Z,10.83
2018-09-17T08:35:14.256Z,10.57
2018-09-17T08:37:44.848Z,14.07
2018-09-17T08:40:15.136Z,11.00
2018-09-17T08:42:45.671Z,12.43
2018-09-17T08:45:16.177Z,10.87
2018-09-17T08:47:46.972Z,15.30
2018-09-17T08:50:17.341Z,10.83
2018-09-17T08:52:48.051Z,14.37
2018-09-17T08:55:24.009Z,10.20
2018-09-17T08:58:01.368Z,10.27
2018-09-17T09:00:36.791Z,12.80
2018-09-17T09:03:12.604Z,10.60
2018-09-17T09:05:48.129Z,12.30
2018-09-17T09:08:18.752Z,18.00
2018-09-17T09:10:53.497Z,11.87
2018-09-17T09:13:29.308Z,12.93
2018-09-17T09:15:59.994Z,9.80
2018-09-17T09:18:30.835Z,12.00
2018-09-17T09:21:01.632Z,18.70
2018-09-17T09:23:31.877Z,11.23
2018-09-17T09:26:02.694Z,14.37
2018-09-17T09:28:32.911Z,11.73
2018-09-17T09:31:03.151Z,10.07
2018-09-17T09:33:34.000Z,9.47
2018-09-17T09:36:04.526Z,9.20
2018-09-17T09:38:35.034Z,9.37
2018-09-17T09:41:05.597Z,7.60
2018-09-17T09:43:36.241Z,8.07
2018-09-17T09:46:07.237Z,9.10
2018-09-17T09:48:37.798Z,8.00
2018-09-17T09:51:08.156Z,8.43
2018-09-17T09:53:38.472Z,6.30
2018-09-17T09:56:09.272Z,9.33
2018-09-17T09:58:39.604Z,6.93
2018-09-17T10:01:31.721Z,8.43
2018-09-17T10:04:07.827Z,8.50
2018-09-17T10:06:38.617Z,8.53
2018-09-17T10:11:18.890Z,7.00
2018-09-17T10:13:54.891Z,7.07
2018-09-17T10:16:25.110Z,14.80
2018-09-17T10:19:00.730Z,11.27
2018-09-17T10:21:31.284Z,7.63
2018-09-17T10:24:01.774Z,14.23
2018-09-17T10:26:32.732Z,8.50
2018-09-17T10:29:03.268Z,8.63
2018-09-17T10:31:33.792Z,8.40
2018-09-17T10:34:04.355Z,8.10
2018-09-17T10:36:35.054Z,9.20
2018-09-17T10:39:08.087Z,9.00
2018-09-17T10:41:38.755Z,8.47
2018-09-17T10:44:09.514Z,12.80
2018-09-17T10:46:39.960Z,9.70
2018-09-17T10:49:10.461Z,8.40
2018-09-17T10:51:40.726Z,9.90
2018-09-17T10:54:11.529Z,9.20
2018-09-17T10:56:42.077Z,9.27
2018-09-17T10:59:12.583Z,13.90
2018-09-17T11:01:43.431Z,10.17
2018-09-17T11:04:16.038Z,10.23
2018-09-17T11:06:46.904Z,11.03
2018-09-17T11:09:17.430Z,13.83
2018-09-17T11:11:48.380Z,12.17
2018-09-17T11:14:18.865Z,11.33
2018-09-17T11:16:49.233Z,8.13
2018-09-17T11:19:20.512Z,9.00
2018-09-17T11:21:51.355Z,8.47
2018-09-17T11:24:21.591Z,9.97
2018-09-17T11:26:52.441Z,10.10
2018-09-17T11:29:22.941Z,9.60
2018-09-17T11:31:54.610Z,9.40
2018-09-17T11:34:25.010Z,9.80
2018-09-17T11:36:55.511Z,8.73
2018-09-17T11:39:26.325Z,9.33
2018-09-17T11:41:57.159Z,10.13
2018-09-17T11:44:28.147Z,9.97
2018-09-17T11:46:58.883Z,10.83
2018-09-17T11:49:29.624Z,9.73
2018-09-17T11:52:00.168Z,9.57
2018-09-17T11:54:30.408Z,10.30
2018-09-17T11:57:00.644Z,9.87
2018-09-17T11:59:31.180Z,12.63
2018-09-17T12:02:05.252Z,10.57
2018-09-17T12:04:40.985Z,15.03
2018-09-17T12:07:17.382Z,8.90
2018-09-17T12:09:47.966Z,10.27
2018-09-17T12:12:18.457Z,14.47
2018-09-17T12:14:49.062Z,9.20
2018-09-17T12:17:20.199Z,9.23
2018-09-17T12:19:50.763Z,14.70
2018-09-17T12:22:21.284Z,15.53
2018-09-17T12:24:52.269Z,8.93
2018-09-17T12:27:22.797Z,7.87
2018-09-17T12:29:53.475Z,8.60
2018-09-17T12:32:24.008Z,10.80
2018-09-17T12:34:54.543Z,8.60
2018-09-17T12:37:25.383Z,8.93
2018-09-17T12:39:56.204Z,9.70
2018-09-17T12:42:26.783Z,8.77
2018-09-17T12:44:57.712Z,9.93
2018-09-17T12:47:28.398Z,14.33
2018-09-17T12:49:59.148Z,8.63
2018-09-17T12:52:29.840Z,8.13
2018-09-17T12:55:00.617Z,9.00
2018-09-17T12:57:31.152Z,10.83
2018-09-17T13:00:01.742Z,11.03
2018-09-17T13:02:35.717Z,8.20
2018-09-17T13:05:08.149Z,9.03
2018-09-17T13:07:38.799Z,6.73
2018-09-17T13:10:19.973Z,7.77
2018-09-17T13:12:51.154Z,9.30
2018-09-17T13:15:21.700Z,8.67
2018-09-17T13:17:52.541Z,7.57
2018-09-17T13:20:23.243Z,8.90
2018-09-17T13:22:53.690Z,8.17
2018-09-17T13:25:24.521Z,10.80
2018-09-17T13:27:55.396Z,13.63
2018-09-17T13:30:26.134Z,10.57
2018-09-17T13:32:57.956Z,7.33
2018-09-17T13:35:28.495Z,8.17
2018-09-17T13:37:59.230Z,7.23
2018-09-17T13:40:29.793Z,10.33
2018-09-17T13:43:00.532Z,8.50
2018-09-17T13:45:32.801Z,8.20
2018-09-17T13:48:03.496Z,8.50
2018-09-17T13:50:34.096Z,16.90
2018-09-17T13:53:04.582Z,11.17
2018-09-17T13:55:35.308Z,8.87
2018-09-17T13:58:05.989Z,9.07
2018-09-17T14:00:36.525Z,12.83
2018-09-17T14:03:07.611Z,9.23
2018-09-17T14:05:38.242Z,9.10
2018-09-17T14:08:08.802Z,8.80
2018-09-17T14:10:39.822Z,9.03
2018-09-17T14:13:10.557Z,8.50
2018-09-17T14:15:45.208Z,8.53
2018-09-17T14:18:15.749Z,9.37
2018-09-17T14:20:46.644Z,8.77
2018-09-17T14:23:17.605Z,10.83
2018-09-17T14:25:48.264Z,10.20
2018-09-17T14:28:19.048Z,8.87
2018-09-17T14:30:49.951Z,7.87
2018-09-17T14:33:25.718Z,6.90
2018-09-17T14:35:56.219Z,8.77
2018-09-17T14:38:26.788Z,8.77
2018-09-17T14:40:58.353Z,9.90
2018-09-17T14:43:29.677Z,8.33
2018-09-17T14:46:00.249Z,7.53
2018-09-17T14:48:30.594Z,10.40
2018-09-17T14:51:01.103Z,8.07
2018-09-17T14:53:31.394Z,7.00
2018-09-17T14:56:02.084Z,7.67
2018-09-17T14:58:32.595Z,7.70
2018-09-17T15:01:03.384Z,7.40
2018-09-17T15:03:41.962Z,8.27
2018-09-17T15:06:13.284Z,8.20
2018-09-17T15:08:43.988Z,8.27
2018-09-17T15:11:14.732Z,7.17
2018-09-17T15:13:45.835Z,8.23
2018-09-17T15:16:16.885Z,6.93
2018-09-17T15:18:48.498Z,9.10
2018-09-17T15:21:19.400Z,8.20
2018-09-17T15:23:50.044Z,9.17
2018-09-17T15:26:20.928Z,7.73
2018-09-17T15:28:51.527Z,7.90
2018-09-17T15:31:22.457Z,7.80
2018-09-17T15:33:53.051Z,8.40
2018-09-17T15:36:23.721Z,9.37
2018-09-17T15:38:54.827Z,16.13
2018-09-17T15:41:26.063Z,8.30
2018-09-17T15:43:56.673Z,11.63
2018-09-17T15:46:27.383Z,10.20
2018-09-17T15:48:58.203Z,10.63
2018-09-17T15:51:29.024Z,8.00
2018-09-17T15:53:59.569Z,9.00
2018-09-17T15:56:30.101Z,9.53
2018-09-17T15:59:00.644Z,8.03
2018-09-17T16:01:31.199Z,10.33
2018-09-17T16:04:01.735Z,8.03
2018-09-17T16:06:32.208Z,9.90
2018-09-17T16:09:02.992Z,8.90
2018-09-17T16:11:33.239Z,9.27
2018-09-17T16:14:04.581Z,8.10
2018-09-17T16:16:35.266Z,7.37
2018-09-17T16:19:06.083Z,10.17
2018-09-17T16:21:36.971Z,8.17
2018-09-17T16:24:07.761Z,7.33
2018-09-17T16:26:38.300Z,10.23
2018-09-17T16:29:10.355Z,9.07
2018-09-17T16:31:40.923Z,8.37
2018-09-17T16:34:11.515Z,8.80
2018-09-17T16:36:42.432Z,14.80
2018-09-17T16:39:13.085Z,8.97
2018-09-17T16:41:44.082Z,8.13
2018-09-17T16:44:15.308Z,7.83
2018-09-17T16:46:46.543Z,8.77
2018-09-17T16:49:17.597Z,14.80
2018-09-17T16:51:48.083Z,11.07
2018-09-17T16:54:18.610Z,10.47
2018-09-17T16:56:49.254Z,7.77
2018-09-17T16:59:19.903Z,11.93
2018-09-17T17:01:50.916Z,9.17
2018-09-17T17:04:21.447Z,19.17
2018-09-17T17:06:52.040Z,10.67
2018-09-17T17:09:22.800Z,8.87
2018-09-17T17:11:53.761Z,21.70
2018-09-17T17:14:24.864Z,10.13
2018-09-17T17:16:55.670Z,14.20
2018-09-17T17:19:26.313Z,9.27
2018-09-17T17:21:57.163Z,14.43
2018-09-17T17:24:27.396Z,15.70
2018-09-17T17:26:59.806Z,7.73
2018-09-17T17:29:31.012Z,8.77
2018-09-17T17:32:02.091Z,15.63
2018-09-17T17:34:34.058Z,16.33
2018-09-17T17:37:05.860Z,8.50
2018-09-17T17:39:36.921Z,9.73
2018-09-17T17:42:08.400Z,18.43
2018-09-17T17:44:40.020Z,9.93
2018-09-17T17:47:11.676Z,16.03
2018-09-17T17:49:42.975Z,8.63
2018-09-17T17:52:14.956Z,9.00
2018-09-17T17:54:47.337Z,9.17
2018-09-17T17:57:17.965Z,14.80
2018-09-17T18:00:18.970Z,9.07
2018-09-17T18:02:51.868Z,17.97
2018-09-17T18:05:25.486Z,8.10
2018-09-17T18:07:57.296Z,13.83
2018-09-17T18:10:34.485Z,20.13
2018-09-17T18:13:07.158Z,11.37
2018-09-17T18:15:38.715Z,12.40
2018-09-17T18:18:10.423Z,13.37
2018-09-17T18:20:42.163Z,7.47
2018-09-17T18:23:13.363Z,10.00
2018-09-17T18:25:49.125Z,8.80
2018-09-17T18:28:19.664Z,7.73
2018-09-17T18:30:50.297Z,12.20
2018-09-17T18:33:20.907Z,9.37
2018-09-17T18:35:51.860Z,8.13
2018-09-17T18:38:22.092Z,9.37
2018-09-17T18:40:52.613Z,10.60
2018-09-17T18:43:23.157Z,11.03
2018-09-17T18:45:53.858Z,9.20
2018-09-17T18:48:24.557Z,7.47
2018-09-17T18:50:55.186Z,8.63
2018-09-17T18:53:25.904Z,8.70
2018-09-17T18:55:56.467Z,7.80
2018-09-17T18:58:26.741Z,16.77
2018-09-17T19:00:57.228Z,13.87
2018-09-17T19:03:28.275Z,16.03
2018-09-17T19:05:58.908Z,13.60
2018-09-17T19:08:29.639Z,12.17
2018-09-17T19:10:59.922Z,8.33
2018-09-17T19:13:30.473Z,17.07
2018-09-17T19:16:01.130Z,24.13
2018-09-17T19:18:31.654Z,13.23
2018-09-17T19:21:04.230Z,9.57
2018-09-17T19:23:42.195Z,7.30
2018-09-17T19:26:13.143Z,12.90
2018-09-17T19:28:49.179Z,8.33
2018-09-17T19:31:19.756Z,9.93
2018-09-17T19:33:50.382Z,9.27
2018-09-17T19:36:21.268Z,9.27
2018-09-17T19:38:56.904Z,8.77
2018-09-17T19:41:28.045Z,15.80
2018-09-17T19:43:59.120Z,10.63
2018-09-17T19:46:30.234Z,10.37
2018-09-17T19:49:00.932Z,13.97
2018-09-17T19:51:36.574Z,10.27
2018-09-17T19:54:07.563Z,10.50
2018-09-17T19:56:38.705Z,17.63
2018-09-17T19:59:15.715Z,12.50
2018-09-17T20:01:46.265Z,10.63
2018-09-17T20:04:22.124Z,12.87
2018-09-17T20:06:54.810Z,9.57
2018-09-17T20:09:25.378Z,10.10
2018-09-17T20:11:57.071Z,9.47
2018-09-17T20:14:28.403Z,18.60
2018-09-17T20:16:59.036Z,16.00
2018-09-17T20:19:29.619Z,14.23
2018-09-17T20:22:00.217Z,9.70
2018-09-17T20:24:31.258Z,12.53
2018-09-17T20:27:02.206Z,11.13
2018-09-17T20:29:32.850Z,12.90
2018-09-17T20:32:03.497Z,9.13
2018-09-17T20:34:34.079Z,9.60
2018-09-17T20:37:05.902Z,13.17
2018-09-17T20:39:36.670Z,13.93
2018-09-17T20:42:07.032Z,15.50
2018-09-17T20:44:37.642Z,22.73
2018-09-17T20:47:08.275Z,13.03
2018-09-17T20:49:39.012Z,14.70
2018-09-17T20:52:10.058Z,18.63
2018-09-17T20:54:40.472Z,23.50
2018-09-17T20:57:11.158Z,9.37
2018-09-17T20:59:41.962Z,19.87
2018-09-17T21:02:12.548Z,21.13
2018-09-17T21:04:43.802Z,9.83
2018-09-17T21:07:14.660Z,17.03
2018-09-17T21:09:45.577Z,11.70
2018-09-17T21:12:16.485Z,15.37
2018-09-17T21:14:47.069Z,11.47
2018-09-17T21:17:17.828Z,12.27
2018-09-17T21:19:48.794Z,17.67
2018-09-17T21:22:20.035Z,17.63
2018-09-17T21:24:50.738Z,9.07
2018-09-17T21:27:21.431Z,11.70
2018-09-17T21:29:52.078Z,14.10
2018-09-17T21:32:22.388Z,8.30
2018-09-17T21:34:53.052Z,14.13
2018-09-17T21:37:24.011Z,15.07
2018-09-17T21:39:55.213Z,13.40
2018-09-17T21:42:25.829Z,13.80
2018-09-17T21:44:56.437Z,12.33
2018-09-17T21:47:27.187Z,11.60
2018-09-17T21:49:58.202Z,27.03
2018-09-17T21:52:28.814Z,14.37
2018-09-17T21:54:59.744Z,9.00
2018-09-17T21:57:31.336Z,15.13
2018-09-17T22:00:02.445Z,18.03
2018-09-17T22:02:36.297Z,9.20
2018-09-17T22:05:13.798Z,9.20
2018-09-17T22:07:44.629Z,11.73
2018-09-17T22:10:15.180Z,10.97
2018-09-17T22:12:45.760Z,18.20
2018-09-17T22:15:16.521Z,10.20
2018-09-17T22:17:47.240Z,8.83
2018-09-17T22:20:18.330Z,8.83
2018-09-17T22:22:48.959Z,9.00
2018-09-17T22:25:19.591Z,10.63
2018-09-17T22:27:50.186Z,11.97
2018-09-17T22:30:21.071Z,9.83
2018-09-17T22:32:51.641Z,10.90
2018-09-17T22:35:22.873Z,11.43
2018-09-17T22:37:53.497Z,11.60
2018-09-17T22:40:24.186Z,8.30
2018-09-17T22:42:54.836Z,10.73
2018-09-17T22:45:25.552Z,13.93
2018-09-17T22:47:56.090Z,9.93
2018-09-17T22:50:26.649Z,10.37
2018-09-17T22:52:57.257Z,23.60
2018-09-17T22:55:27.795Z,11.97
2018-09-17T22:57:58.513Z,11.67
2018-09-17T23:00:30.333Z,10.00
2018-09-17T23:03:01.579Z,10.23
2018-09-17T23:05:31.991Z,17.60
2018-09-17T23:08:09.284Z,21.20
2018-09-17T23:10:40.972Z,12.50
2018-09-17T23:13:13.298Z,10.70
2018-09-17T23:15:44.472Z,11.40
2018-09-17T23:18:15.068Z,9.73
2018-09-17T23:20:45.724Z,14.13
2018-09-17T23:23:16.527Z,14.70
2018-09-17T23:25:47.247Z,12.50
2018-09-17T23:28:18.420Z,11.43
2018-09-17T23:30:48.990Z,10.60
2018-09-17T23:33:19.697Z,10.23
2018-09-17T23:35:50.515Z,11.03
2018-09-17T23:38:22.195Z,14.30
2018-09-17T23:40:52.795Z,11.87
2018-09-17T23:43:23.752Z,12.73
2018-09-17T23:45:54.565Z,12.07
2018-09-17T23:48:25.139Z,11.50
2018-09-17T23:50:55.928Z,13.80
2018-09-17T23:53:26.695Z,20.53
2018-09-17T23:55:57.280Z,13.30
2018-09-17T23:58:28.121Z,15.70
